createdAt,value
2018-06-21T00:00:42.528Z,19.21
2018-06-21T00:01:42.521Z,19.16
2018-06-21T00:02:42.521Z,19.13
2018-06-21T00:03:42.516Z,19.13
2018-06-21T00:04:42.499Z,19.13
2018-06-21T00:05:42.494Z,19.16
2018-06-21T00:06:42.504Z,19.11
2018-06-21T00:07:42.488Z,19.25
2018-06-21T00:08:42.472Z,19.18
2018-06-21T00:09:42.460Z,19.14
2018-06-21T00:10:42.446Z,19.14
2018-06-21T00:11:42.465Z,19.19
2018-06-21T00:12:42.454Z,19.11
2018-06-21T00:13:42.431Z,19.13
2018-06-21T00:14:42.424Z,19.10
2018-06-21T00:15:42.411Z,19.10
2018-06-21T00:16:42.446Z,19.13
2018-06-21T00:17:42.409Z,19.06
2018-06-21T00:18:42.457Z,19.07
2018-06-21T00:19:42.384Z,19.10
2018-06-21T00:20:42.387Z,19.07
2018-06-21T00:21:42.377Z,19.02
2018-06-21T00:22:42.373Z,19.04
2018-06-21T00:23:42.362Z,19.04
2018-06-21T00:24:42.349Z,19.06
2018-06-21T00:25:42.337Z,19.10
2018-06-21T00:26:42.333Z,19.06
2018-06-21T00:27:42.459Z,19.07
2018-06-21T00:28:42.321Z,19.07
2018-06-21T00:29:42.307Z,19.04
2018-06-21T00:30:42.306Z,19.08
2018-06-21T00:31:42.302Z,18.95
2018-06-21T00:32:42.279Z,19.00
2018-06-21T00:33:42.316Z,19.02
2018-06-21T00:34:42.275Z,18.91
2018-06-21T00:35:42.287Z,18.98
2018-06-21T00:36:42.261Z,19.02
2018-06-21T00:37:42.289Z,18.91
2018-06-21T00:38:42.238Z,18.94
2018-06-21T00:39:42.236Z,18.91
2018-06-21T00:40:42.249Z,18.94
2018-06-21T00:41:42.213Z,18.98
2018-06-21T00:42:42.242Z,19.02
2018-06-21T00:43:42.198Z,18.94
2018-06-21T00:44:42.188Z,18.90
2018-06-21T00:45:42.185Z,18.98
2018-06-21T00:46:42.194Z,18.91
2018-06-21T00:47:42.158Z,18.90
2018-06-21T00:48:42.163Z,18.94
2018-06-21T00:49:42.165Z,18.98
2018-06-21T00:50:42.201Z,19.02
2018-06-21T00:51:42.147Z,18.91
2018-06-21T00:52:42.125Z,18.80
2018-06-21T00:53:42.122Z,18.85
2018-06-21T00:54:42.109Z,18.75
2018-06-21T00:55:42.099Z,18.78
2018-06-21T00:56:42.107Z,18.75
2018-06-21T00:57:42.086Z,18.75
2018-06-21T00:58:42.075Z,18.63
2018-06-21T00:59:42.067Z,18.55
2018-06-21T01:00:42.075Z,18.52
2018-06-21T01:01:42.089Z,18.62
2018-06-21T01:02:42.060Z,18.51
2018-06-21T01:03:42.044Z,18.54
2018-06-21T01:04:42.099Z,18.51
2018-06-21T01:05:42.032Z,18.54
2018-06-21T01:06:42.053Z,18.60
2018-06-21T01:07:42.010Z,18.54
2018-06-21T01:08:42.002Z,18.54
2018-06-21T01:09:41.996Z,18.60
2018-06-21T01:10:41.986Z,18.57
2018-06-21T01:11:42.029Z,18.62
2018-06-21T01:12:41.969Z,18.55
2018-06-21T01:13:41.956Z,18.52
2018-06-21T01:14:41.963Z,18.51
2018-06-21T01:15:41.958Z,18.50
2018-06-21T01:16:41.981Z,18.57
2018-06-21T01:17:41.960Z,18.58
2018-06-21T01:18:41.924Z,18.55
2018-06-21T01:19:41.918Z,18.57
2018-06-21T01:20:41.912Z,18.48
2018-06-21T01:21:41.897Z,18.44
2018-06-21T01:22:42.026Z,18.41
2018-06-21T01:23:41.889Z,18.42
2018-06-21T01:24:41.871Z,18.42
2018-06-21T01:25:41.864Z,18.45
2018-06-21T01:26:41.843Z,18.42
2018-06-21T01:27:41.845Z,18.37
2018-06-21T01:28:41.845Z,18.45
2018-06-21T01:29:41.840Z,18.44
2018-06-21T01:30:41.967Z,18.47
2018-06-21T01:31:41.808Z,18.54
2018-06-21T01:32:41.803Z,18.47
2018-06-21T01:33:41.799Z,18.55
2018-06-21T01:34:41.797Z,18.54
2018-06-21T01:35:41.784Z,18.52
2018-06-21T01:36:41.784Z,18.58
2018-06-21T01:37:41.762Z,18.55
2018-06-21T01:38:41.757Z,18.58
2018-06-21T01:39:41.750Z,18.62
2018-06-21T01:40:41.734Z,18.52
2018-06-21T01:41:41.782Z,18.57
2018-06-21T01:42:41.718Z,18.57
2018-06-21T01:43:41.725Z,18.48
2018-06-21T01:44:41.703Z,18.48
2018-06-21T01:45:41.699Z,18.50
2018-06-21T01:46:41.694Z,18.48
2018-06-21T01:47:41.711Z,18.45
2018-06-21T01:48:41.676Z,18.45
2018-06-21T01:49:41.656Z,18.48
2018-06-21T01:50:41.654Z,18.50
2018-06-21T01:51:41.649Z,18.48
2018-06-21T01:52:41.670Z,18.47
2018-06-21T01:53:41.630Z,18.42
2018-06-21T01:54:41.616Z,18.45
2018-06-21T01:55:41.630Z,18.41
2018-06-21T01:56:41.606Z,18.36
2018-06-21T01:57:41.659Z,18.37
2018-06-21T01:58:41.585Z,18.36
2018-06-21T01:59:41.579Z,18.42
2018-06-21T02:00:41.563Z,18.42
2018-06-21T02:01:41.564Z,18.36
2018-06-21T02:02:41.571Z,18.39
2018-06-21T02:03:41.552Z,18.41
2018-06-21T02:04:41.550Z,18.37
2018-06-21T02:05:41.527Z,18.33
2018-06-21T02:06:41.515Z,18.35
2018-06-21T02:07:41.521Z,18.30
2018-06-21T02:08:41.545Z,18.27
2018-06-21T02:09:41.526Z,18.35
2018-06-21T02:10:41.504Z,18.27
2018-06-21T02:11:41.485Z,18.32
2018-06-21T02:12:41.474Z,18.29
2018-06-21T02:13:41.467Z,18.27
2018-06-21T02:14:41.512Z,18.27
2018-06-21T02:15:41.455Z,18.26
2018-06-21T02:16:41.463Z,18.20
2018-06-21T02:17:41.452Z,18.26
2018-06-21T02:18:41.477Z,18.26
2018-06-21T02:19:41.465Z,18.17
2018-06-21T02:20:41.467Z,18.23
2018-06-21T02:21:41.443Z,18.17
2018-06-21T02:22:41.444Z,18.23
2018-06-21T02:23:41.422Z,18.20
2018-06-21T02:24:41.449Z,18.20
2018-06-21T02:25:41.432Z,18.14
2018-06-21T02:26:41.409Z,18.10
2018-06-21T02:27:41.406Z,17.96
2018-06-21T02:28:41.382Z,17.87
2018-06-21T02:29:41.383Z,17.89
2018-06-21T02:30:41.404Z,17.99
2018-06-21T02:31:41.360Z,17.93
2018-06-21T02:32:41.363Z,17.96
2018-06-21T02:33:41.348Z,18.05
2018-06-21T02:34:41.345Z,18.05
2018-06-21T02:35:41.347Z,17.96
2018-06-21T02:36:41.324Z,18.07
2018-06-21T02:37:41.325Z,18.02
2018-06-21T02:38:41.304Z,18.11
2018-06-21T02:39:41.287Z,18.03
2018-06-21T02:40:41.307Z,18.10
2018-06-21T02:41:41.269Z,18.12
2018-06-21T02:42:41.267Z,18.10
2018-06-21T02:43:41.268Z,18.11
2018-06-21T02:44:41.266Z,18.18
2018-06-21T02:45:41.262Z,18.23
2018-06-21T02:46:41.225Z,18.18
2018-06-21T02:47:41.224Z,18.14
2018-06-21T02:48:41.216Z,18.14
2018-06-21T02:49:41.205Z,18.11
2018-06-21T02:50:41.228Z,18.03
2018-06-21T02:51:41.190Z,18.05
2018-06-21T02:52:41.209Z,18.03
2018-06-21T02:53:41.176Z,18.08
2018-06-21T02:54:41.171Z,18.20
2018-06-21T02:55:41.157Z,18.05
2018-06-21T02:56:41.228Z,18.15
2018-06-21T02:57:41.135Z,18.07
2018-06-21T02:58:41.132Z,18.08
2018-06-21T02:59:41.118Z,18.11
2018-06-21T03:00:41.205Z,17.97
2018-06-21T03:01:41.118Z,18.00
2018-06-21T03:02:41.157Z,17.93
2018-06-21T03:03:41.091Z,17.97
2018-06-21T03:04:41.208Z,17.99
2018-06-21T03:05:41.068Z,18.05
2018-06-21T03:06:41.061Z,17.95
2018-06-21T03:07:41.069Z,17.97
2018-06-21T03:08:41.123Z,17.93
2018-06-21T03:09:41.048Z,17.95
2018-06-21T03:10:41.031Z,17.92
2018-06-21T03:11:41.023Z,17.96
2018-06-21T03:12:41.010Z,17.90
2018-06-21T03:13:41.000Z,18.02
2018-06-21T03:14:41.039Z,17.95
2018-06-21T03:15:40.987Z,17.93
2018-06-21T03:16:40.983Z,17.99
2018-06-21T03:17:40.962Z,17.97
2018-06-21T03:18:40.991Z,17.95
2018-06-21T03:19:40.944Z,17.89
2018-06-21T03:20:40.920Z,17.92
2018-06-21T03:21:40.912Z,17.99
2018-06-21T03:22:40.877Z,17.89
2018-06-21T03:23:40.863Z,17.82
2018-06-21T03:24:40.887Z,18.03
2018-06-21T03:25:40.846Z,18.05
2018-06-21T03:26:40.879Z,18.02
2018-06-21T03:27:40.834Z,18.00
2018-06-21T03:28:40.870Z,17.97
2018-06-21T03:29:40.863Z,18.03
2018-06-21T03:30:41.170Z,18.05
2018-06-21T03:31:40.866Z,18.03
2018-06-21T03:32:40.827Z,18.00
2018-06-21T03:33:40.834Z,17.99
2018-06-21T03:34:40.765Z,17.87
2018-06-21T03:35:40.763Z,17.92
2018-06-21T03:36:40.792Z,17.78
2018-06-21T03:37:40.756Z,17.82
2018-06-21T03:38:40.758Z,17.87
2018-06-21T03:39:40.731Z,17.79
2018-06-21T03:40:40.723Z,17.90
2018-06-21T03:41:40.742Z,17.86
2018-06-21T03:42:40.699Z,17.89
2018-06-21T03:43:40.724Z,17.84
2018-06-21T03:44:40.675Z,17.77
2018-06-21T03:45:40.685Z,17.77
2018-06-21T03:46:40.673Z,17.72
2018-06-21T03:47:40.764Z,17.70
2018-06-21T03:48:40.675Z,17.74
2018-06-21T03:49:40.646Z,17.72
2018-06-21T03:50:40.640Z,17.74
2018-06-21T03:51:40.624Z,17.70
2018-06-21T03:52:40.846Z,17.72
2018-06-21T03:53:40.604Z,17.72
2018-06-21T03:54:40.843Z,17.64
2018-06-21T03:55:40.589Z,17.71
2018-06-21T03:56:40.581Z,17.74
2018-06-21T03:57:40.567Z,17.72
2018-06-21T03:58:40.611Z,17.78
2018-06-21T03:59:40.563Z,17.81
2018-06-21T04:00:40.555Z,17.74
2018-06-21T04:01:40.548Z,17.70
2018-06-21T04:02:40.543Z,17.68
2018-06-21T04:03:40.554Z,17.68
2018-06-21T04:04:40.510Z,17.75
2018-06-21T04:05:40.507Z,17.72
2018-06-21T04:06:40.499Z,17.77
2018-06-21T04:07:40.485Z,17.86
2018-06-21T04:08:40.512Z,17.90
2018-06-21T04:09:40.473Z,17.81
2018-06-21T04:10:40.463Z,17.87
2018-06-21T04:11:40.455Z,17.81
2018-06-21T04:12:40.454Z,18.02
2018-06-21T04:13:40.442Z,17.96
2018-06-21T04:14:40.454Z,17.96
2018-06-21T04:15:40.550Z,18.03
2018-06-21T04:16:40.409Z,17.97
2018-06-21T04:17:40.400Z,17.90
2018-06-21T04:18:40.391Z,17.92
2018-06-21T04:19:40.389Z,18.02
2018-06-21T04:20:40.373Z,17.97
2018-06-21T04:21:40.398Z,17.99
2018-06-21T04:22:40.352Z,18.05
2018-06-21T04:23:40.347Z,18.07
2018-06-21T04:24:40.341Z,18.11
2018-06-21T04:25:40.354Z,18.05
2018-06-21T04:26:40.349Z,18.12
2018-06-21T04:27:40.303Z,18.17
2018-06-21T04:28:40.433Z,18.23
2018-06-21T04:29:40.295Z,18.21
2018-06-21T04:30:40.299Z,18.26
2018-06-21T04:31:40.280Z,18.26
2018-06-21T04:32:40.274Z,18.32
2018-06-21T04:33:40.265Z,18.35
2018-06-21T04:34:40.263Z,18.29
2018-06-21T04:35:40.242Z,18.33
2018-06-21T04:36:40.234Z,18.25
2018-06-21T04:37:40.227Z,18.26
2018-06-21T04:38:40.220Z,18.33
2018-06-21T04:39:40.232Z,18.30
2018-06-21T04:40:40.196Z,18.32
2018-06-21T04:41:40.236Z,18.36
2018-06-21T04:42:40.186Z,18.36
2018-06-21T04:43:40.199Z,18.27
2018-06-21T04:44:40.182Z,18.36
2018-06-21T04:45:40.169Z,18.27
2018-06-21T04:46:40.151Z,18.30
2018-06-21T04:47:40.139Z,18.26
2018-06-21T04:48:40.137Z,18.25
2018-06-21T04:49:40.193Z,18.27
2018-06-21T04:50:40.120Z,18.23
2018-06-21T04:51:40.144Z,18.18
2018-06-21T04:52:40.188Z,18.25
2018-06-21T04:53:40.100Z,18.20
2018-06-21T04:54:40.105Z,18.20
2018-06-21T04:55:40.128Z,18.21
2018-06-21T04:56:40.085Z,18.17
2018-06-21T04:57:40.073Z,18.15
2018-06-21T04:58:40.071Z,18.15
2018-06-21T04:59:40.049Z,18.08
2018-06-21T05:00:40.084Z,18.10
2018-06-21T05:01:40.042Z,18.14
2018-06-21T05:02:40.059Z,18.10
2018-06-21T05:03:40.020Z,18.07
2018-06-21T05:04:40.037Z,18.10
2018-06-21T05:05:40.200Z,18.15
2018-06-21T05:06:40.006Z,18.05
2018-06-21T05:07:39.985Z,18.03
2018-06-21T05:08:39.982Z,18.00
2018-06-21T05:09:39.974Z,18.12
2018-06-21T05:10:39.977Z,18.12
2018-06-21T05:11:39.972Z,18.08
2018-06-21T05:12:39.938Z,17.99
2018-06-21T05:13:39.934Z,18.02
2018-06-21T05:14:39.934Z,18.00
2018-06-21T05:15:40.082Z,18.05
2018-06-21T05:16:39.939Z,18.07
2018-06-21T05:17:39.943Z,18.02
2018-06-21T05:18:39.888Z,17.97
2018-06-21T05:19:39.893Z,17.90
2018-06-21T05:20:39.872Z,18.00
2018-06-21T05:21:39.881Z,18.00
2018-06-21T05:22:40.055Z,17.93
2018-06-21T05:23:41.686Z,17.99
2018-06-21T05:24:40.267Z,17.97
2018-06-21T05:25:39.827Z,17.90
2018-06-21T05:26:39.819Z,17.90
2018-06-21T05:27:39.826Z,17.92
2018-06-21T05:28:39.848Z,17.96
2018-06-21T05:29:39.801Z,18.00
2018-06-21T05:30:39.798Z,17.95
2018-06-21T05:31:39.800Z,18.02
2018-06-21T05:32:39.957Z,17.89
2018-06-21T05:33:39.769Z,17.92
2018-06-21T05:34:40.055Z,17.87
2018-06-21T05:35:39.745Z,17.82
2018-06-21T05:36:40.702Z,17.78
2018-06-21T05:37:39.740Z,17.82
2018-06-21T05:38:39.769Z,17.82
2018-06-21T05:39:39.755Z,17.77
2018-06-21T05:40:39.691Z,17.75
2018-06-21T05:41:40.701Z,17.77
2018-06-21T05:42:39.710Z,17.79
2018-06-21T05:43:39.748Z,17.77
2018-06-21T05:44:39.668Z,17.84
2018-06-21T05:45:40.238Z,17.77
2018-06-21T05:46:40.092Z,17.81
2018-06-21T05:47:39.637Z,17.81
2018-06-21T05:48:39.698Z,17.81
2018-06-21T05:49:39.635Z,17.71
2018-06-21T05:50:39.627Z,17.72
2018-06-21T05:51:39.628Z,17.74
2018-06-21T05:53:15.005Z,17.72
2018-06-21T05:53:39.598Z,17.63
2018-06-21T05:54:39.678Z,17.58
2018-06-21T05:55:39.592Z,17.63
2018-06-21T05:56:39.637Z,17.58
2018-06-21T05:57:39.553Z,17.54
2018-06-21T05:58:39.547Z,17.72
2018-06-21T05:59:41.282Z,17.51
2018-06-21T06:00:40.959Z,17.46
2018-06-21T06:01:39.510Z,17.52
2018-06-21T06:02:39.559Z,17.48
2018-06-21T06:03:39.496Z,17.52
2018-06-21T06:04:39.492Z,17.49
2018-06-21T06:05:39.618Z,17.48
2018-06-21T06:06:39.476Z,17.46
2018-06-21T06:07:39.486Z,17.44
2018-06-21T06:08:39.615Z,17.44
2018-06-21T06:09:39.453Z,17.44
2018-06-21T06:10:39.450Z,17.43
2018-06-21T06:11:39.736Z,17.37
2018-06-21T06:12:39.557Z,17.46
2018-06-21T06:13:39.414Z,17.31
2018-06-21T06:14:39.406Z,17.34
2018-06-21T06:15:39.422Z,17.36
2018-06-21T06:16:39.404Z,17.25
2018-06-21T06:17:39.463Z,17.30
2018-06-21T06:18:39.373Z,17.33
2018-06-21T06:19:39.364Z,17.26
2018-06-21T06:20:39.565Z,17.43
2018-06-21T06:21:39.361Z,17.31
2018-06-21T06:22:39.331Z,17.23
2018-06-21T06:23:39.327Z,17.31
2018-06-21T06:24:39.322Z,17.30
2018-06-21T06:25:39.325Z,17.18
2018-06-21T06:26:39.316Z,17.16
2018-06-21T06:27:39.282Z,17.22
2018-06-21T06:28:39.324Z,17.23
2018-06-21T06:29:39.265Z,17.15
2018-06-21T06:30:39.248Z,17.06
2018-06-21T06:31:39.274Z,16.97
2018-06-21T06:32:39.231Z,16.85
2018-06-21T06:33:39.234Z,16.88
2018-06-21T06:34:39.220Z,16.91
2018-06-21T06:35:39.207Z,16.75
2018-06-21T06:36:39.216Z,16.82
2018-06-21T06:37:39.190Z,16.71
2018-06-21T06:38:39.167Z,16.64
2018-06-21T06:39:39.762Z,16.53
2018-06-21T06:40:39.301Z,16.58
2018-06-21T06:41:39.157Z,16.50
2018-06-21T06:42:39.127Z,16.43
2018-06-21T06:43:39.123Z,16.42
2018-06-21T06:44:39.122Z,16.43
2018-06-21T06:45:39.095Z,16.35
2018-06-21T06:46:39.231Z,16.28
2018-06-21T06:47:39.145Z,16.38
2018-06-21T06:48:39.737Z,16.33
2018-06-21T06:49:39.069Z,16.28
2018-06-21T06:50:39.065Z,16.38
2018-06-21T06:51:39.135Z,16.38
2018-06-21T06:52:40.728Z,16.35
2018-06-21T06:53:39.022Z,16.28
2018-06-21T06:54:39.069Z,16.30
2018-06-21T06:55:39.030Z,16.27
2018-06-21T06:56:38.994Z,16.21
2018-06-21T06:57:39.270Z,16.21
2018-06-21T06:58:38.982Z,16.24
2018-06-21T06:59:39.766Z,16.24
2018-06-21T07:00:38.976Z,16.27
2018-06-21T07:01:38.965Z,16.27
2018-06-21T07:02:39.755Z,16.14
2018-06-21T07:03:38.928Z,16.09
2018-06-21T07:04:38.905Z,16.01
2018-06-21T07:05:40.778Z,16.07
2018-06-21T07:06:38.893Z,16.05
2018-06-21T07:07:39.768Z,15.89
2018-06-21T07:08:38.876Z,15.90
2018-06-21T07:09:39.152Z,15.94
2018-06-21T07:10:39.098Z,16.02
2018-06-21T07:11:39.071Z,16.04
2018-06-21T07:12:38.845Z,16.01
2018-06-21T07:13:38.975Z,16.00
2018-06-21T07:14:39.271Z,16.00
2018-06-21T07:15:38.827Z,16.04
2018-06-21T07:16:38.801Z,16.09
2018-06-21T07:17:38.843Z,16.12
2018-06-21T07:18:39.050Z,16.17
2018-06-21T07:19:38.814Z,16.12
2018-06-21T07:20:38.745Z,16.15
2018-06-21T07:21:38.898Z,16.04
2018-06-21T07:22:39.251Z,15.97
2018-06-21T07:23:39.248Z,15.94
2018-06-21T07:24:38.709Z,16.01
2018-06-21T07:25:39.240Z,16.01
2018-06-21T07:26:39.375Z,16.00
2018-06-21T07:27:39.257Z,15.94
2018-06-21T07:28:38.688Z,16.00
2018-06-21T07:29:38.654Z,15.92
2018-06-21T07:30:38.730Z,15.89
2018-06-21T07:31:38.638Z,15.87
2018-06-21T07:32:41.276Z,15.84
2018-06-21T07:33:38.677Z,15.83
2018-06-21T07:34:40.765Z,15.84
2018-06-21T07:35:38.633Z,15.86
2018-06-21T07:36:39.751Z,15.84
2018-06-21T07:37:40.262Z,15.87
2018-06-21T07:38:38.582Z,15.84
2018-06-21T07:39:39.259Z,15.75
2018-06-21T07:40:38.540Z,15.84
2018-06-21T07:41:38.555Z,15.86
2018-06-21T07:42:38.523Z,15.87
2018-06-21T07:43:39.455Z,15.86
2018-06-21T07:44:39.201Z,15.83
2018-06-21T07:45:38.624Z,15.83
2018-06-21T07:46:38.532Z,15.82
2018-06-21T07:47:38.479Z,15.87
2018-06-21T07:48:38.490Z,15.82
2018-06-21T07:49:40.503Z,15.87
2018-06-21T07:50:38.440Z,15.92
2018-06-21T07:51:38.599Z,15.83
2018-06-21T07:52:38.441Z,15.86
2018-06-21T07:53:38.417Z,15.78
2018-06-21T07:54:39.121Z,15.82
2018-06-21T07:55:38.396Z,15.87
2018-06-21T07:56:38.390Z,15.89
2018-06-21T07:57:38.377Z,15.90
2018-06-21T07:58:38.410Z,15.92
2018-06-21T07:59:38.350Z,15.89
2018-06-21T08:00:38.349Z,16.01
2018-06-21T08:01:38.343Z,16.08
2018-06-21T08:02:38.319Z,16.14
2018-06-21T08:03:38.421Z,16.11
2018-06-21T08:04:38.305Z,16.09
2018-06-21T08:05:38.293Z,16.11
2018-06-21T08:06:38.301Z,16.11
2018-06-21T08:07:38.266Z,16.11
2018-06-21T08:08:38.254Z,16.27
2018-06-21T08:09:38.244Z,16.24
2018-06-21T08:10:38.319Z,16.35
2018-06-21T08:11:38.238Z,16.31
2018-06-21T08:12:38.231Z,16.38
2018-06-21T08:13:38.216Z,16.45
2018-06-21T08:14:38.204Z,16.50
2018-06-21T08:15:38.190Z,16.43
2018-06-21T08:16:38.348Z,16.50
2018-06-21T08:17:38.350Z,16.42
2018-06-21T08:18:38.188Z,16.39
2018-06-21T08:19:38.158Z,16.31
2018-06-21T08:20:38.153Z,16.28
2018-06-21T08:21:38.147Z,16.34
2018-06-21T08:22:38.151Z,16.35
2018-06-21T08:23:38.111Z,16.34
2018-06-21T08:24:38.099Z,16.38
2018-06-21T08:25:38.103Z,16.35
2018-06-21T08:26:39.808Z,16.41
2018-06-21T08:29:43.803Z,16.41
2018-06-21T08:30:42.689Z,16.33
2018-06-21T08:31:42.939Z,16.31
2018-06-21T08:32:43.578Z,16.31
2018-06-21T08:33:42.689Z,16.33
2018-06-21T08:34:42.648Z,16.27
2018-06-21T08:35:42.643Z,16.41
2018-06-21T08:36:42.635Z,16.35
2018-06-21T08:37:42.656Z,16.38
2018-06-21T08:38:43.668Z,16.52
2018-06-21T08:39:42.659Z,16.53
2018-06-21T08:40:42.593Z,16.66
2018-06-21T08:41:42.585Z,16.56
2018-06-21T08:42:42.696Z,16.58
2018-06-21T08:43:42.606Z,16.53
2018-06-21T08:44:42.564Z,16.66
2018-06-21T08:45:42.660Z,16.66
2018-06-21T08:46:42.538Z,16.66
2018-06-21T08:47:42.552Z,16.66
2018-06-21T08:48:42.600Z,16.67
2018-06-21T08:49:42.696Z,16.61
2018-06-21T08:50:42.524Z,16.57
2018-06-21T08:51:42.489Z,16.57
2018-06-21T08:52:42.507Z,16.53
2018-06-21T08:53:42.479Z,16.57
2018-06-21T08:54:42.486Z,16.49
2018-06-21T08:55:42.607Z,16.63
2018-06-21T08:56:44.092Z,16.52
2018-06-21T08:58:28.412Z,16.56
2018-06-21T08:58:42.452Z,16.49
2018-06-21T08:59:53.210Z,16.49
2018-06-21T09:00:42.394Z,16.49
2018-06-21T09:01:42.461Z,16.53
2018-06-21T09:02:43.119Z,16.45
2018-06-21T09:03:43.164Z,16.50
2018-06-21T09:04:42.366Z,16.42
2018-06-21T09:05:42.356Z,16.35
2018-06-21T09:06:42.392Z,16.34
2018-06-21T09:07:42.348Z,16.30
2018-06-21T09:08:42.336Z,16.41
2018-06-21T09:09:42.370Z,16.43
2018-06-21T09:10:42.324Z,16.64
2018-06-21T09:11:42.301Z,16.75
2018-06-21T09:12:42.293Z,16.73
2018-06-21T09:13:42.306Z,16.88
2018-06-21T09:14:42.428Z,17.01
2018-06-21T09:15:42.253Z,17.25
2018-06-21T09:16:42.404Z,17.44
2018-06-21T09:17:44.122Z,17.54
2018-06-21T09:18:42.221Z,17.72
2018-06-21T09:19:42.310Z,17.74
2018-06-21T09:20:42.276Z,17.75
2018-06-21T09:21:42.592Z,17.64
2018-06-21T09:22:42.340Z,17.70
2018-06-21T09:23:42.189Z,17.71
2018-06-21T09:24:42.187Z,17.72
2018-06-21T09:25:42.184Z,17.74
2018-06-21T09:26:42.168Z,17.74
2018-06-21T09:27:42.164Z,17.72
2018-06-21T09:28:42.187Z,17.70
2018-06-21T09:29:42.150Z,17.58
2018-06-21T09:30:42.220Z,17.58
2018-06-21T09:31:42.137Z,17.48
2018-06-21T09:32:42.163Z,17.37
2018-06-21T09:33:42.122Z,17.34
2018-06-21T09:34:42.115Z,17.28
2018-06-21T09:35:42.104Z,17.31
2018-06-21T09:36:42.113Z,17.28
2018-06-21T09:37:42.622Z,17.08
2018-06-21T09:38:43.615Z,17.07
2018-06-21T09:39:42.628Z,16.96
2018-06-21T09:40:42.718Z,16.94
2018-06-21T09:41:42.561Z,16.85
2018-06-21T09:42:42.708Z,16.88
2018-06-21T09:43:50.299Z,16.73
2018-06-21T09:44:42.076Z,16.70
2018-06-21T09:45:42.039Z,16.61
2018-06-21T09:46:42.032Z,16.58
2018-06-21T09:47:42.005Z,16.61
2018-06-21T09:48:42.014Z,16.52
2018-06-21T09:49:42.038Z,16.48
2018-06-21T09:50:42.005Z,16.31
2018-06-21T09:51:42.657Z,16.34
2018-06-21T09:52:42.168Z,16.33
2018-06-21T09:53:41.975Z,16.15
2018-06-21T09:54:42.041Z,16.15
2018-06-21T09:55:41.950Z,16.01
2018-06-21T09:56:42.486Z,15.89
2018-06-21T09:57:41.980Z,15.83
2018-06-21T09:58:42.354Z,15.83
2018-06-21T09:59:41.921Z,15.69
2018-06-21T10:00:41.941Z,15.67
2018-06-21T10:01:41.898Z,15.67
2018-06-21T10:02:41.863Z,15.59
2018-06-21T10:03:41.853Z,15.54
2018-06-21T10:04:41.893Z,15.67
2018-06-21T10:05:41.856Z,15.64
2018-06-21T10:06:42.170Z,15.71
2018-06-21T10:07:41.884Z,15.67
2018-06-21T10:08:42.012Z,15.71
2018-06-21T10:09:41.805Z,15.71
2018-06-21T10:10:41.790Z,15.78
2018-06-21T10:11:41.915Z,15.74
2018-06-21T10:12:43.646Z,15.76
2018-06-21T10:13:41.756Z,15.72
2018-06-21T10:14:41.749Z,15.80
2018-06-21T10:15:42.103Z,15.83
2018-06-21T10:16:41.767Z,16.07
2018-06-21T10:17:41.736Z,16.14
2018-06-21T10:18:41.704Z,16.31
2018-06-21T10:19:41.686Z,16.24
2018-06-21T10:20:41.707Z,16.28
2018-06-21T10:21:41.735Z,16.33
2018-06-21T10:22:41.685Z,16.58
2018-06-21T10:23:41.663Z,16.81
2018-06-21T10:24:41.651Z,16.81
2018-06-21T10:25:41.650Z,16.97
2018-06-21T10:26:42.149Z,16.88
2018-06-21T10:27:41.630Z,16.98
2018-06-21T10:28:41.765Z,17.01
2018-06-21T10:29:41.642Z,17.01
2018-06-21T10:30:42.273Z,16.86
2018-06-21T10:31:41.591Z,16.85
2018-06-21T10:32:41.610Z,16.82
2018-06-21T10:33:41.572Z,16.68
2018-06-21T10:34:41.839Z,16.58
2018-06-21T10:35:41.564Z,16.76
2018-06-21T10:36:41.553Z,17.01
2018-06-21T10:37:41.566Z,17.36
2018-06-21T10:38:41.514Z,17.36
2018-06-21T10:39:41.524Z,17.44
2018-06-21T10:40:41.507Z,17.37
2018-06-21T10:41:41.504Z,17.52
2018-06-21T10:42:41.622Z,17.89
2018-06-21T10:43:41.489Z,18.36
2018-06-21T10:44:41.480Z,18.73
2018-06-21T10:45:41.478Z,19.13
2018-06-21T10:46:41.471Z,19.21
2018-06-21T10:47:41.753Z,19.32
2018-06-21T10:48:41.451Z,19.43
2018-06-21T10:49:41.465Z,19.51
2018-06-21T10:50:41.488Z,19.48
2018-06-21T10:51:41.476Z,19.56
2018-06-21T10:52:41.484Z,19.68
2018-06-21T10:53:41.656Z,19.63
2018-06-21T10:54:41.435Z,19.48
2018-06-21T10:55:41.435Z,19.59
2018-06-21T10:56:41.449Z,19.56
2018-06-21T10:57:41.440Z,19.47
2018-06-21T10:58:41.495Z,19.16
2018-06-21T10:59:41.421Z,19.02
2018-06-21T11:00:41.667Z,18.78
2018-06-21T11:01:42.172Z,18.70
2018-06-21T11:02:41.413Z,18.37
2018-06-21T11:03:41.699Z,18.23
2018-06-21T11:04:43.188Z,17.97
2018-06-21T11:05:41.426Z,17.68
2018-06-21T11:06:41.393Z,17.70
2018-06-21T11:07:41.388Z,17.70
2018-06-21T11:08:41.425Z,17.84
2018-06-21T11:09:41.378Z,18.00
2018-06-21T11:10:41.693Z,18.21
2018-06-21T11:11:41.367Z,18.50
2018-06-21T11:12:41.415Z,18.75
2018-06-21T11:13:41.340Z,18.95
2018-06-21T11:14:41.412Z,19.08
2018-06-21T11:15:42.173Z,19.25
2018-06-21T11:16:42.173Z,19.41
2018-06-21T11:17:41.409Z,19.51
2018-06-21T11:18:41.365Z,19.69
2018-06-21T11:19:41.346Z,19.86
2018-06-21T11:20:41.357Z,20.06
2018-06-21T11:21:41.339Z,20.11
2018-06-21T11:22:41.313Z,20.41
2018-06-21T11:23:41.314Z,20.66
2018-06-21T11:24:41.313Z,20.76
2018-06-21T11:25:41.329Z,20.66
2018-06-21T11:26:41.313Z,20.51
2018-06-21T11:27:42.302Z,20.32
2018-06-21T11:28:41.313Z,19.86
2018-06-21T11:29:41.356Z,19.71
2018-06-21T11:30:41.312Z,19.69
2018-06-21T11:31:41.347Z,19.73
2018-06-21T11:32:41.287Z,19.88
2018-06-21T11:33:41.328Z,19.99
2018-06-21T11:34:41.376Z,19.95
2018-06-21T11:35:41.296Z,20.01
2018-06-21T11:36:41.294Z,20.05
2018-06-21T11:37:41.283Z,20.32
2018-06-21T11:38:41.413Z,20.57
2018-06-21T11:39:41.285Z,20.69
2018-06-21T11:40:42.241Z,21.03
2018-06-21T11:41:41.277Z,20.95
2018-06-21T11:42:41.288Z,20.80
2018-06-21T11:43:42.217Z,20.67
2018-06-21T11:44:41.272Z,20.32
2018-06-21T11:45:41.264Z,19.92
2018-06-21T11:46:41.275Z,19.77
2018-06-21T11:47:41.256Z,19.50
2018-06-21T11:48:41.259Z,19.19
2018-06-21T11:49:41.277Z,19.08
2018-06-21T11:50:41.269Z,18.84
2018-06-21T11:51:41.314Z,18.70
2018-06-21T11:52:41.220Z,18.60
2018-06-21T11:53:41.250Z,18.47
2018-06-21T11:54:41.241Z,18.39
2018-06-21T11:55:41.722Z,18.36
2018-06-21T11:56:41.210Z,18.30
2018-06-21T11:57:41.198Z,18.18
2018-06-21T11:58:41.207Z,18.20
2018-06-21T11:59:41.191Z,18.05
2018-06-21T12:00:41.327Z,17.87
2018-06-21T12:01:41.199Z,17.68
2018-06-21T12:02:41.225Z,17.72
2018-06-21T12:03:41.160Z,17.58
2018-06-21T12:04:41.158Z,17.48
2018-06-21T12:05:41.156Z,17.51
2018-06-21T12:06:41.155Z,17.58
2018-06-21T12:07:41.131Z,17.58
2018-06-21T12:08:41.196Z,17.64
2018-06-21T12:09:41.169Z,17.66
2018-06-21T12:10:41.114Z,17.64
2018-06-21T12:11:41.124Z,17.58
2018-06-21T12:12:41.085Z,17.64
2018-06-21T12:13:41.099Z,17.63
2018-06-21T12:14:41.713Z,17.66
2018-06-21T12:15:41.067Z,17.64
2018-06-21T12:16:41.086Z,17.70
2018-06-21T12:17:41.225Z,17.70
2018-06-21T12:18:41.035Z,17.74
2018-06-21T12:19:41.035Z,17.71
2018-06-21T12:20:41.040Z,17.55
2018-06-21T12:21:41.026Z,17.58
2018-06-21T12:22:41.031Z,17.51
2018-06-21T12:23:41.012Z,17.62
2018-06-21T12:24:40.990Z,17.58
2018-06-21T12:25:40.994Z,17.66
2018-06-21T12:26:40.983Z,17.70
2018-06-21T12:27:40.956Z,17.87
2018-06-21T12:28:41.007Z,17.82
2018-06-21T12:29:40.939Z,17.95
2018-06-21T12:30:40.934Z,18.07
2018-06-21T12:31:40.929Z,18.12
2018-06-21T12:32:40.924Z,18.23
2018-06-21T12:33:40.912Z,18.36
2018-06-21T12:34:40.961Z,18.23
2018-06-21T12:35:40.891Z,18.33
2018-06-21T12:36:40.902Z,18.33
2018-06-21T12:37:40.891Z,18.30
2018-06-21T12:38:40.873Z,18.39
2018-06-21T12:39:40.866Z,18.32
2018-06-21T12:40:40.927Z,18.32
2018-06-21T12:41:40.855Z,18.27
2018-06-21T12:42:40.834Z,18.41
2018-06-21T12:43:40.863Z,18.39
2018-06-21T12:44:40.812Z,18.18
2018-06-21T12:45:40.869Z,17.99
2018-06-21T12:46:41.302Z,18.03
2018-06-21T12:47:40.781Z,17.90
2018-06-21T12:48:40.791Z,17.90
2018-06-21T12:49:40.789Z,17.77
2018-06-21T12:50:40.780Z,17.81
2018-06-21T12:51:40.816Z,17.79
2018-06-21T12:52:40.760Z,17.77
2018-06-21T12:53:41.759Z,17.77
2018-06-21T12:54:40.737Z,17.75